Time;durP1;ratioP1;P1;durP2;ratioP2;P2;SDS_P1;SDS_P2;PMS_P1;PMS_P2;Temp;Humidity;BMP_temperature;BMP_pressure;BME280_temperature;BME280_humidity;BME280_pressure;Samples;Min_cycle;Max_cycle;Signal;HPM_P1;HPM_P2
2021/07/25 00:00:57;;;;;;;5.43;4.18;;;15.10;99.90;;;15.55;100.00;94556.00;2216404;55;26084;-52
2021/07/25 00:09:37;;;;;;;4.93;3.97;;;15.20;99.90;;;15.79;100.00;94512.00;2415125;54;34532;-52
2021/07/25 00:12:24;;;;;;;6.87;3.78;;;15.20;99.90;;;15.72;100.00;94530.00;2213608;55;26797;-52
2021/07/25 00:15:12;;;;;;;6.70;4.22;;;15.20;99.90;;;15.70;100.00;94530.00;2196673;55;26789;-53
2021/07/25 00:17:58;;;;;;;7.70;4.10;;;15.20;99.90;;;15.55;100.00;94538.00;2408944;55;27185;-51
2021/07/25 00:20:45;;;;;;;9.40;5.10;;;15.20;99.90;;;15.62;100.00;94552.00;2189963;57;26167;-53
2021/07/25 00:23:32;;;;;;;8.27;4.70;;;15.20;99.90;;;15.66;100.00;94557.00;2409925;55;26749;-53
2021/07/25 00:26:25;;;;;;;6.20;4.10;;;15.30;99.90;;;15.68;100.00;94570.00;2189342;55;26649;-51
2021/07/25 00:29:11;;;;;;;6.20;4.43;;;15.30;99.90;;;15.86;100.00;94593.00;2208429;55;26099;-52
2021/07/25 00:32:00;;;;;;;6.75;4.28;;;15.40;99.90;;;15.97;100.00;94595.00;2203557;55;26872;-52
2021/07/25 00:34:46;;;;;;;6.57;4.35;;;15.40;99.90;;;15.91;100.00;94580.00;2418477;55;27111;-52
2021/07/25 00:37:33;;;;;;;5.97;4.22;;;15.40;99.90;;;15.84;100.00;94569.00;2204427;55;26761;-51
2021/07/25 00:40:29;;;;;;;6.07;4.55;;;15.50;99.90;;;15.86;100.00;94566.00;2427185;55;26835;-52
2021/07/25 00:43:26;;;;;;;6.72;4.22;;;15.40;99.90;;;15.85;100.00;94573.00;2437000;55;27442;-52
2021/07/25 00:46:13;;;;;;;6.47;4.28;;;15.40;99.90;;;15.79;100.00;94587.00;2209540;55;27001;-52
2021/07/25 00:49:01;;;;;;;6.05;4.07;;;15.30;99.90;;;15.73;100.00;94567.00;2412333;55;26736;-52
2021/07/25 00:51:48;;;;;;;7.45;4.37;;;15.30;99.90;;;15.67;100.00;94563.00;2188154;57;27168;-53
2021/07/25 00:54:36;;;;;;;4.43;4.03;;;15.30;99.90;;;15.74;100.00;94563.00;2410678;55;26626;-52
2021/07/25 00:57:23;;;;;;;5.60;4.35;;;15.30;99.90;;;15.76;100.00;94567.00;2211112;56;26789;-52
2021/07/25 01:00:13;;;;;;;7.55;4.20;;;15.30;99.90;;;15.72;100.00;94557.00;2433046;55;26711;-51
2021/07/25 01:03:09;;;;;;;7.18;4.30;;;15.30;99.90;;;15.76;100.00;94561.00;2211063;56;26609;-51
2021/07/25 01:09:02;;;;;;;5.55;4.40;;;15.40;99.90;;;15.97;100.00;94515.00;2409485;54;34071;-52
2021/07/25 01:14:53;;;;;;;6.35;4.22;;;15.40;99.90;;;15.82;100.00;94494.00;2444605;54;35031;-52
2021/07/25 01:17:39;;;;;;;8.00;4.00;;;15.30;99.90;;;15.72;100.00;94517.00;2218967;55;26101;-51
2021/07/25 01:20:26;;;;;;;5.97;4.10;;;15.30;99.90;;;15.67;100.00;94518.00;2241171;56;26638;-53
2021/07/25 01:23:13;;;;;;;4.78;4.22;;;15.20;99.90;;;15.62;100.00;94510.00;2469363;54;26276;-51
2021/07/25 01:26:01;;;;;;;7.30;4.43;;;15.20;99.90;;;15.65;100.00;94513.00;2238036;55;26457;-52
2021/07/25 01:28:50;;;;;;;6.87;4.32;;;15.20;99.90;;;15.61;100.00;94513.00;2224318;55;26764;-52
2021/07/25 01:34:37;;;;;;;10.15;4.37;;;15.10;99.90;;;15.63;100.00;94493.00;2421732;55;34786;-53
2021/07/25 01:37:26;;;;;;;8.95;5.18;;;15.00;99.90;;;15.51;100.00;94530.00;2381100;56;26757;-52
2021/07/25 01:40:16;;;;;;;7.72;4.10;;;15.20;99.90;;;15.70;100.00;94533.00;2156423;56;27179;-52
2021/07/25 01:43:05;;;;;;;8.15;4.87;;;15.20;99.90;;;15.56;100.00;94540.00;2357970;55;27537;-52
2021/07/25 01:48:49;;;;;;;8.75;5.53;;;15.00;99.90;;;15.51;100.00;94542.00;2381697;55;33447;-52
2021/07/25 01:51:35;;;;;;;7.87;5.10;;;15.00;99.90;;;15.36;100.00;94558.00;2361550;56;27392;-52
2021/07/25 01:54:22;;;;;;;7.65;5.53;;;15.00;99.90;;;15.36;100.00;94541.00;2161308;57;26184;-51
2021/07/25 01:57:08;;;;;;;6.65;5.05;;;15.00;99.90;;;15.32;100.00;94535.00;2370529;56;26311;-51
2021/07/25 02:02:52;;;;;;;9.60;5.20;;;14.90;99.90;;;15.37;100.00;94517.00;2485364;53;33623;-52
2021/07/25 02:05:38;;;;;;;7.62;5.50;;;14.80;99.90;;;15.19;100.00;94546.00;2232071;55;27164;-51
2021/07/25 02:13:08;;;;;;;6.87;5.35;;;14.70;99.90;;;15.09;100.00;94552.00;2492014;54;27143;-53
2021/07/25 02:15:55;;;;;;;8.50;5.68;;;14.70;99.90;;;14.97;100.00;94561.00;2496027;54;26598;-52
2021/07/25 02:18:41;;;;;;;7.78;5.40;;;14.60;99.90;;;14.93;100.00;94554.00;2248309;55;26768;-51
2021/07/25 02:21:27;;;;;;;8.50;5.45;;;14.50;99.90;;;14.86;100.00;94552.00;2483448;54;26837;-52
2021/07/25 02:24:14;;;;;;;9.95;5.68;;;14.50;99.90;;;14.86;100.00;94555.00;2257891;55;26854;-51
2021/07/25 02:27:00;;;;;;;9.95;5.50;;;14.50;99.90;;;14.98;100.00;94571.00;2492753;54;27092;-51
2021/07/25 02:32:43;;;;;;;8.38;5.20;;;14.50;99.90;;;15.07;100.00;94561.00;2414126;55;34040;-52
2021/07/25 02:35:30;;;;;;;7.25;5.43;;;14.60;99.90;;;15.09;100.00;94591.00;2212761;56;26616;-52
2021/07/25 02:38:16;;;;;;;9.60;5.25;;;14.60;99.90;;;15.03;100.00;94589.00;2436207;55;26656;-51
2021/07/25 02:43:59;;;;;;;6.93;5.12;;;14.60;99.90;;;15.16;100.00;94568.00;2451813;54;33891;-52
2021/07/25 02:46:46;;;;;;;8.07;5.70;;;14.70;99.90;;;15.26;100.00;94595.00;2191704;55;26803;-51
2021/07/25 02:49:33;;;;;;;6.87;5.28;;;14.70;99.90;;;15.21;100.00;94623.00;2421963;54;27247;-52
2021/07/25 02:55:16;;;;;;;7.87;5.70;;;14.70;99.90;;;15.31;100.00;94613.00;2374076;55;34226;-51
2021/07/25 02:58:10;;;;;;;7.72;5.60;;;14.80;99.90;;;15.22;100.00;94640.00;2162288;56;26785;-52
2021/07/25 03:00:57;;;;;;;6.32;5.53;;;14.90;99.90;;;15.47;100.00;94644.00;2372868;56;26610;-51
2021/07/25 03:03:44;;;;;;;7.90;5.35;;;14.90;99.90;;;15.35;100.00;94636.00;2182913;56;26836;-52
2021/07/25 03:06:30;;;;;;;5.93;5.32;;;14.80;99.90;;;15.26;100.00;94639.00;2406407;56;26811;-52
2021/07/25 03:09:17;;;;;;;10.45;5.62;;;14.80;99.90;;;15.27;100.00;94641.00;2190202;57;27381;-51
2021/07/25 03:12:04;;;;;;;6.53;5.47;;;14.80;99.90;;;15.09;100.00;94629.00;2407964;56;26757;-51
2021/07/25 03:14:51;;;;;;;9.25;5.37;;;14.70;99.90;;;15.00;100.00;94632.00;2184361;57;26892;-51
2021/07/25 03:17:37;;;;;;;7.93;6.18;;;14.60;99.90;;;14.97;100.00;94640.00;2408114;55;26241;-51
2021/07/25 03:23:20;;;;;;;10.43;5.95;;;14.50;99.90;;;14.87;100.00;94611.00;2422907;55;33804;-51
2021/07/25 03:29:05;;;;;;;8.30;5.90;;;14.50;99.90;;;14.89;100.00;94614.00;2443602;54;33618;-51
2021/07/25 03:34:47;;;;;;;9.80;5.80;;;14.50;99.90;;;15.06;100.00;94637.00;2360090;56;34221;-51
2021/07/25 03:37:34;;;;;;;14.18;6.25;;;14.50;99.90;;;14.95;100.00;94674.00;2347851;55;26162;-51
2021/07/25 03:40:24;;;;;;;7.72;6.00;;;14.60;99.90;;;15.00;100.00;94680.00;2117239;57;26736;-51
2021/07/25 03:43:10;;;;;;;8.18;5.53;;;14.70;99.90;;;15.08;100.00;94674.00;2113407;57;26660;-52
2021/07/25 03:45:57;;;;;;;9.93;5.57;;;14.70;99.90;;;15.14;100.00;94689.00;2316650;56;26724;-51
2021/07/25 03:48:44;;;;;;;7.37;5.25;;;14.70;99.90;;;15.11;100.00;94697.00;2125267;57;26177;-51
2021/07/25 03:51:31;;;;;;;5.95;5.35;;;14.70;99.90;;;15.24;100.00;94694.00;2140787;57;27137;-51
2021/07/25 03:54:18;;;;;;;5.63;5.03;;;14.80;99.90;;;15.25;100.00;94717.00;2140649;57;26752;-52
2021/07/25 03:57:06;;;;;;;6.28;5.07;;;14.80;99.90;;;15.19;100.00;94705.00;2140136;57;27308;-51
2021/07/25 03:59:52;;;;;;;7.12;5.28;;;14.80;99.90;;;15.18;100.00;94700.00;2141341;57;26950;-51
2021/07/25 04:05:36;;;;;;;8.43;4.70;;;14.80;99.90;;;15.35;100.00;94685.00;2442435;54;33509;-51
2021/07/25 04:08:23;;;;;;;8.35;5.05;;;14.80;99.90;;;15.31;100.00;94711.00;2218372;56;27316;-51
2021/07/25 04:11:15;;;;;;;5.60;5.03;;;14.80;99.90;;;15.35;100.00;94714.00;2436032;55;26681;-51
2021/07/25 04:16:58;;;;;;;5.45;4.80;;;14.90;99.90;;;15.39;100.00;94681.00;2380546;55;33967;-51
2021/07/25 04:19:44;;;;;;;4.90;4.40;;;14.80;99.90;;;15.24;100.00;94694.00;2159137;56;26743;-52
2021/07/25 04:25:30;;;;;;;6.30;4.78;;;14.90;99.90;;;15.35;100.00;94654.00;2429780;54;33657;-51
2021/07/25 04:28:19;;;;;;;9.05;4.87;;;14.90;99.90;;;15.39;100.00;94681.00;2218905;55;27257;-51
2021/07/25 04:31:07;;;;;;;6.65;4.37;;;15.10;99.90;;;15.50;100.00;94675.00;2213350;55;26710;-51
2021/07/25 04:33:55;;;;;;;7.22;4.80;;;15.00;99.90;;;15.41;100.00;94672.00;2213205;55;26726;-51
2021/07/25 04:36:44;;;;;;;6.85;4.93;;;15.00;99.90;;;15.38;100.00;94685.00;2212157;55;27394;-52
2021/07/25 04:39:31;;;;;;;7.22;4.60;;;15.00;99.90;;;15.39;100.00;94679.00;2436161;55;27027;-51
2021/07/25 04:42:21;;;;;;;9.95;4.80;;;15.10;99.90;;;15.53;100.00;94686.00;2212945;55;27015;-51
2021/07/25 04:45:11;;;;;;;4.97;4.40;;;15.10;99.90;;;15.52;100.00;94677.00;2436366;55;26253;-55
2021/07/25 04:51:06;;;;;;;5.60;4.22;;;15.30;99.90;;;15.77;100.00;94642.00;2419528;55;33825;-52
2021/07/25 04:56:59;;;;;;;5.57;4.50;;;15.40;99.90;;;15.97;100.00;94637.00;2430038;54;34042;-51
2021/07/25 04:59:50;;;;;;;7.65;4.15;;;15.30;99.90;;;15.91;100.00;94660.00;2189592;56;27369;-51
2021/07/25 05:02:40;;;;;;;5.62;4.40;;;15.50;99.90;;;15.93;100.00;94658.00;2408321;55;26939;-51
2021/07/25 05:05:28;;;;;;;5.25;4.75;;;15.50;99.90;;;16.05;100.00;94668.00;2199175;54;26669;-52
2021/07/25 05:08:17;;;;;;;7.20;4.78;;;15.60;99.90;;;16.13;100.00;94671.00;2425447;55;27636;-51
2021/07/25 05:14:25;;;;;;;8.52;4.25;;;15.70;99.90;;;16.36;100.00;94641.00;2442122;54;34394;-51
2021/07/25 05:17:18;;;;;;;11.20;4.55;;;15.80;99.90;;;16.31;100.00;94670.00;2411343;54;26560;-51
2021/07/25 05:20:14;;;;;;;5.75;4.35;;;15.90;99.90;;;16.43;100.00;94663.00;2462184;54;26709;-51
2021/07/25 05:23:09;;;;;;;7.87;4.05;;;16.00;99.90;;;16.51;100.00;94658.00;2236832;54;27046;-51
2021/07/25 05:25:57;;;;;;;5.57;4.70;;;16.00;99.90;;;16.59;100.00;94653.00;2242639;55;27238;-51
2021/07/25 05:28:45;;;;;;;5.95;4.30;;;16.10;99.90;;;16.65;100.00;94656.00;2266352;55;28006;-51
2021/07/25 05:34:27;;;;;;;6.32;4.70;;;16.10;99.90;;;16.98;100.00;94627.00;2448159;53;33866;-51
2021/07/25 05:37:13;;;;;;;5.97;4.40;;;16.20;99.90;;;16.72;100.00;94642.00;2207461;55;26572;-51
2021/07/25 05:40:00;;;;;;;7.00;4.60;;;16.40;99.90;;;17.00;100.00;94644.00;2250114;54;26614;-52
2021/07/25 05:42:47;;;;;;;7.37;4.90;;;16.60;99.90;;;17.24;100.00;94643.00;2468151;54;26639;-51
2021/07/25 05:45:33;;;;;;;6.55;4.97;;;16.90;99.90;;;17.63;100.00;94639.00;2224380;55;26786;-52
2021/07/25 05:48:20;;;;;;;6.72;4.95;;;17.10;99.90;;;17.86;100.00;94631.00;2434687;54;27042;-51
2021/07/25 05:54:03;;;;;;;7.87;4.18;;;17.70;99.90;;;18.59;100.00;94622.00;2356881;56;34505;-51
2021/07/25 05:56:50;;;;;;;5.03;4.35;;;17.80;99.90;;;18.61;100.00;94628.00;2331998;57;26949;-51
2021/07/25 05:59:37;;;;;;;6.05;4.50;;;18.00;99.90;;;18.83;100.00;94611.00;2111793;58;27146;-51
2021/07/25 06:02:23;;;;;;;5.78;4.10;;;18.20;99.90;;;19.03;100.00;94612.00;2112047;58;27693;-51
2021/07/25 06:05:10;;;;;;;4.97;3.95;;;18.30;99.90;;;19.10;100.00;94608.00;2314835;58;27271;-51
2021/07/25 06:07:58;;;;;;;7.47;4.12;;;18.20;99.90;;;18.86;100.00;94594.00;2110618;58;26740;-51
2021/07/25 06:10:45;;;;;;;4.95;3.90;;;18.30;99.90;;;19.18;100.00;94600.00;2314683;58;26549;-51
2021/07/25 06:13:31;;;;;;;4.95;4.00;;;18.70;99.90;;;19.54;100.00;94603.00;2110177;58;26797;-51
2021/07/25 06:16:17;;;;;;;4.78;4.03;;;18.90;99.90;;;19.58;100.00;94600.00;2297283;58;26902;-51
2021/07/25 06:22:05;;;;;;;4.75;4.25;;;19.40;99.90;;;20.58;100.00;94596.00;2446777;53;34729;-51
2021/07/25 06:24:51;;;;;;;4.43;4.03;;;19.60;99.90;;;20.57;100.00;94604.00;2223325;54;26780;-51
2021/07/25 06:27:38;;;;;;;4.62;4.12;;;19.90;99.90;;;20.80;100.00;94593.00;2452633;54;27342;-51
2021/07/25 06:30:26;;;;;;;4.20;3.80;;;20.50;99.90;;;21.78;100.00;94593.00;2215126;55;26716;-51
2021/07/25 06:33:13;;;;;;;5.90;4.12;;;21.10;99.90;;;22.68;100.00;94581.00;2439318;54;27374;-52
2021/07/25 06:35:59;;;;;;;5.07;4.35;;;22.10;99.90;;;23.96;100.00;94577.00;2215105;55;27125;-52
2021/07/25 06:38:46;;;;;;;6.15;3.87;;;23.00;99.90;;;25.40;100.00;94565.00;2440302;54;26925;-52
2021/07/25 06:44:29;;;;;;;6.45;3.83;;;24.60;99.90;;;27.53;100.00;94543.00;2373101;55;34340;-51
2021/07/25 06:47:15;;;;;;;5.95;3.67;;;25.20;99.90;;;28.05;100.00;94548.00;2134339;57;26708;-52
2021/07/25 06:50:02;;;;;;;4.68;3.80;;;25.30;99.90;;;27.30;100.00;94541.00;2324680;58;26833;-52
2021/07/25 06:52:49;;;;;;;5.20;3.58;;;25.20;99.90;;;26.86;100.00;94536.00;2139117;56;25103;-51
2021/07/25 06:55:35;;;;;;;7.37;3.87;;;24.80;99.90;;;26.86;100.00;94536.00;2343495;57;26674;-52
2021/07/25 07:01:19;;;;;;;5.35;3.60;;;25.20;99.90;;;26.68;100.00;94543.00;2408105;55;34333;-51
2021/07/25 07:09:59;;;;;;;4.57;3.40;;;25.90;99.90;;;28.57;100.00;94528.00;2411374;55;33955;-52
2021/07/25 07:12:47;;;;;;;6.80;3.60;;;27.00;99.90;;;29.24;100.00;94525.00;2184158;57;27192;-51
2021/07/25 07:15:34;;;;;;;3.75;3.37;;;27.80;99.90;;;29.18;100.00;94532.00;2402448;56;26595;-51
2021/07/25 07:18:21;;;;;;;5.95;3.70;;;26.80;99.90;;;27.37;100.00;94534.00;2209379;56;26820;-52
2021/07/25 07:21:07;;;;;;;4.95;3.30;;;25.50;99.90;;;26.41;100.00;94524.00;2431512;55;27360;-52
2021/07/25 07:23:55;;;;;;;4.75;3.78;;;25.50;99.90;;;27.04;100.00;94533.00;2207666;56;25069;-51
2021/07/25 07:26:41;;;;;;;5.82;3.58;;;25.80;99.90;;;26.97;100.00;94543.00;2207213;56;26778;-52
2021/07/25 07:32:25;;;;;;;6.20;4.03;;;26.30;99.90;;;28.51;100.00;94539.00;2339956;56;34038;-49
2021/07/25 07:35:12;;;;;;;4.90;4.07;;;26.10;99.90;;;27.71;100.00;94548.00;2113182;58;27202;-49
2021/07/25 07:37:58;;;;;;;5.78;4.03;;;26.60;99.90;;;28.18;100.00;94550.00;2082705;59;26782;-49
2021/07/25 07:43:43;;;;;;;4.47;3.30;;;27.60;99.90;;;29.58;100.00;94557.00;2381354;55;33815;-51
2021/07/25 07:46:30;;;;;;;5.07;4.00;;;26.80;99.90;;;28.12;100.00;94567.00;2160529;56;26768;-51
2021/07/25 07:49:17;;;;;;;4.15;3.47;;;25.90;99.90;;;26.98;100.00;94566.00;2349701;56;26837;-51
2021/07/25 07:52:05;;;;;;;5.70;3.78;;;25.40;99.90;;;26.52;100.00;94563.00;2157939;57;26569;-52
2021/07/25 07:54:51;;;;;;;5.30;3.83;;;25.90;99.90;;;27.56;100.00;94575.00;2161610;56;25552;-52
2021/07/25 08:00:35;;;;;;;5.85;3.40;;;28.70;99.90;;;31.89;95.03;94575.00;2371234;55;33252;-52
2021/07/25 08:03:21;;;;;;;6.18;3.62;;;29.90;99.90;;;32.51;95.17;94578.00;2143841;56;27636;-52
2021/07/25 08:06:07;;;;;;;4.82;3.35;;;30.20;99.90;;;32.28;74.76;94585.00;2158872;55;26792;-50
2021/07/25 08:08:53;;;;;;;5.47;3.55;;;29.70;99.90;;;31.01;87.03;94580.00;2406120;55;26704;-50
2021/07/25 08:11:43;;;;;;;3.70;3.37;;;28.90;99.90;;;30.24;91.20;94573.00;2186569;56;26709;-50
2021/07/25 08:14:29;;;;;;;3.75;3.33;;;28.90;99.90;;;30.66;100.00;94575.00;2406618;55;25094;-50
2021/07/25 08:20:14;;;;;;;5.75;3.62;;;28.40;99.90;;;30.19;100.00;94573.00;2406189;55;34981;-51
2021/07/25 08:23:00;;;;;;;11.25;5.57;;;27.40;99.90;;;28.33;100.00;94559.00;2405110;55;27676;-52
2021/07/25 08:28:44;;;;;;;15.82;7.65;;;26.00;99.90;;;26.57;100.00;94550.00;2351059;56;34334;-51
2021/07/25 08:31:31;;;;;;;8.18;3.90;;;25.50;99.90;;;26.02;100.00;94553.00;2134730;57;25896;-52
2021/07/25 08:34:17;;;;;;;6.43;3.92;;;25.20;99.90;;;25.59;100.00;94557.00;2343026;56;25225;-51
2021/07/25 08:37:06;;;;;;;5.20;3.67;;;25.00;99.90;;;25.42;100.00;94558.00;2134622;57;26921;-51
2021/07/25 08:39:53;;;;;;;4.35;3.35;;;24.60;99.90;;;25.17;100.00;94555.00;2342177;56;25156;-51
2021/07/25 08:45:44;;;;;;;5.32;4.28;;;24.20;99.90;;;24.47;100.00;94559.00;2443220;54;34030;-51
2021/07/25 08:51:41;;;;;;;6.75;4.82;;;23.60;99.90;;;23.89;100.00;94553.00;2408118;54;34079;-51
2021/07/25 08:54:30;;;;;;;7.12;4.35;;;23.40;99.90;;;23.97;100.00;94565.00;2180421;55;26591;-51
2021/07/25 08:57:20;;;;;;;4.65;4.00;;;23.40;99.90;;;24.04;100.00;94557.00;2402978;55;26173;-51
2021/07/25 09:00:11;;;;;;;5.15;4.65;;;23.40;99.90;;;23.88;100.00;94550.00;2185899;55;26726;-51
2021/07/25 09:02:58;;;;;;;5.68;4.10;;;23.30;99.90;;;;;;2181540;55;26953;-51
2021/07/25 09:08:43;;;;;;;4.68;3.17;;;23.00;99.90;;;23.39;100.00;94553.00;2416840;54;33838;-51
2021/07/25 09:14:27;;;;;;;3.08;2.78;;;22.80;99.90;;;23.40;100.00;94560.00;2388248;55;34213;-51
2021/07/25 09:17:14;;;;;;;3.58;2.80;;;22.80;99.90;;;23.16;100.00;94564.00;2136176;56;26806;-51
2021/07/25 09:20:23;;;;;;;4.53;3.20;;;22.70;99.90;;;23.07;100.00;94568.00;2148709;57;26699;-50
2021/07/25 09:23:14;;;;;;;4.00;3.20;;;22.80;99.90;;;23.44;100.00;94563.00;2363294;56;26857;-51
2021/07/25 09:26:00;;;;;;;4.62;2.80;;;22.80;99.90;;;23.18;100.00;94562.00;2143999;56;26944;-51
2021/07/25 09:28:46;;;;;;;4.00;3.08;;;23.00;99.90;;;23.54;100.00;94560.00;2164169;57;27414;-51
2021/07/25 09:31:33;;;;;;;3.55;3.15;;;23.00;99.90;;;23.34;100.00;94553.00;2378296;57;27051;-52
2021/07/25 09:34:39;;;;;;;4.80;3.10;;;23.20;99.90;;;23.82;100.00;94535.00;2165278;57;26835;-51
2021/07/25 09:37:25;;;;;;;4.75;3.17;;;23.60;99.90;;;24.31;100.00;94544.00;2163540;57;27420;-51
2021/07/25 09:40:15;;;;;;;4.65;3.28;;;23.80;99.90;;;24.39;100.00;94538.00;2377862;56;26116;-51
2021/07/25 09:43:10;;;;;;;3.80;3.22;;;23.80;99.90;;;24.24;100.00;94528.00;2162829;57;26889;-51
2021/07/25 09:45:59;;;;;;;4.43;3.50;;;23.80;99.90;;;24.51;100.00;94533.00;2161761;57;26101;-50
2021/07/25 09:48:57;;;;;;;3.92;3.40;;;23.80;99.90;;;24.41;100.00;94544.00;2366826;56;26855;-51
2021/07/25 09:51:43;;;;;;;3.50;3.15;;;23.90;99.90;;;24.75;100.00;94545.00;2152107;56;26815;-51
2021/07/25 09:54:30;;;;;;;4.45;3.15;;;24.20;99.90;;;25.17;100.00;94538.00;2364469;56;26719;-51
2021/07/25 10:00:16;;;;;;;2.87;2.67;;;24.50;99.90;;;24.96;100.00;94535.00;2342701;56;34939;-51
2021/07/25 10:05:58;;;;;;;4.68;3.28;;;24.60;99.90;;;25.65;100.00;94527.00;2445407;54;33866;-51
2021/07/25 10:08:45;;;;;;;3.83;3.10;;;24.80;99.90;;;25.63;100.00;94530.00;2426018;55;26948;-51
2021/07/25 10:14:30;;;;;;;4.40;3.20;;;24.70;99.90;;;25.90;100.00;94507.00;2379747;55;34148;-51
2021/07/25 10:17:16;;;;;;;5.25;3.00;;;25.10;99.90;;;25.97;100.00;94507.00;2170108;58;27333;-52
2021/07/25 10:20:06;;;;;;;4.85;3.03;;;25.10;99.90;;;25.83;100.00;94506.00;2395474;55;26951;-51
2021/07/25 10:22:56;;;;;;;3.53;2.70;;;25.40;99.90;;;26.24;100.00;94507.00;2227925;55;26659;-52
2021/07/25 10:25:48;;;;;;;3.25;2.47;;;25.50;99.90;;;26.56;100.00;94500.00;2450159;55;27333;-51
2021/07/25 10:28:37;;;;;;;3.37;2.70;;;25.20;99.90;;;25.89;100.00;94494.00;2231239;56;26183;-51
2021/07/25 10:34:22;;;;;;;3.20;2.90;;;24.70;99.90;;;25.85;100.00;94493.00;2389777;55;34407;-51
2021/07/25 10:37:10;;;;;;;4.07;3.05;;;25.40;99.90;;;26.18;100.00;94496.00;2391387;55;26567;-52
2021/07/25 10:39:58;;;;;;;3.22;2.80;;;25.80;99.90;;;26.73;100.00;94502.00;2195441;55;26730;-52
2021/07/25 10:46:18;;;;;;;4.07;3.05;;;25.20;99.90;;;25.22;100.00;94491.00;2340940;56;33846;-51
2021/07/25 10:55:08;;;;;;;5.47;3.25;;;24.80;99.90;;;25.86;100.00;94495.00;2389514;55;34365;-51
2021/07/25 10:58:03;;;;;;;4.40;3.40;;;25.00;99.90;;;25.76;100.00;94490.00;2198226;55;26873;-50
2021/07/25 11:00:52;;;;;;;3.58;3.28;;;25.40;99.90;;;26.31;100.00;94480.00;2205422;55;27000;-51
2021/07/25 11:03:44;;;;;;;3.87;3.10;;;25.70;99.90;;;26.16;100.00;94477.00;2203555;57;26737;-52
2021/07/25 11:06:31;;;;;;;4.47;2.90;;;25.70;99.90;;;26.06;100.00;94479.00;2203120;57;26752;-51
2021/07/25 11:09:55;;;;;;;4.05;3.10;;;25.60;99.90;;;25.92;100.00;94467.00;2201735;56;26891;-51
2021/07/25 11:13:18;;;;;;;4.20;3.40;;;25.50;99.90;;;25.78;100.00;94464.00;2183165;56;26928;-51
2021/07/25 11:16:42;;;;;;;4.25;3.53;;;25.30;99.90;;;25.40;100.00;94466.00;2402452;55;26927;-51
2021/07/25 11:22:46;;;;;;;4.87;3.33;;;24.90;99.90;;;25.56;100.00;94466.00;2422253;54;34221;-51
2021/07/25 11:25:35;;;;;;;3.75;3.30;;;24.80;99.90;;;25.23;100.00;94481.00;2401004;55;26802;-51
2021/07/25 11:31:48;;;;;;;4.25;3.00;;;24.40;99.90;;;25.02;100.00;94481.00;2391827;55;33848;-51
2021/07/25 11:34:37;;;;;;;4.80;3.50;;;24.20;99.90;;;24.85;100.00;94479.00;2376525;56;27545;-51
2021/07/25 11:37:38;;;;;;;3.35;3.00;;;23.90;99.90;;;24.52;100.00;94478.00;2139975;56;26750;-51
2021/07/25 11:40:26;;;;;;;3.80;3.40;;;23.90;99.90;;;24.56;100.00;94471.00;2342879;56;26623;-51
2021/07/25 11:43:12;;;;;;;4.25;3.53;;;24.20;99.90;;;24.81;100.00;94463.00;2131949;57;26654;-51
2021/07/25 11:45:58;;;;;;;4.12;3.30;;;24.50;99.90;;;25.34;100.00;94469.00;2338512;57;26907;-51
2021/07/25 11:48:45;;;;;;;7.12;3.67;;;24.80;99.90;;;25.76;100.00;94464.00;2149314;56;27749;-51
2021/07/25 11:51:31;;;;;;;4.60;3.47;;;25.00;99.90;;;25.68;100.00;94467.00;2162614;56;26794;-52
2021/07/25 11:54:21;;;;;;;5.18;3.40;;;25.20;99.90;;;25.79;100.00;94468.00;2393364;55;27202;-51
2021/07/25 11:57:10;;;;;;;5.12;3.10;;;25.20;99.90;;;25.98;100.00;94469.00;2402933;55;27328;-51
2021/07/25 11:59:59;;;;;;;5.68;3.22;;;25.60;99.90;;;26.15;100.00;94464.00;2128371;57;26610;-52
2021/07/25 12:02:46;;;;;;;3.65;3.20;;;25.60;99.90;;;26.24;100.00;94458.00;2343100;57;26891;-51
2021/07/25 12:05:32;;;;;;;3.35;3.05;;;25.60;99.90;;;25.89;100.00;94444.00;2139832;55;27300;-51
2021/07/25 12:08:19;;;;;;;5.43;3.42;;;25.60;99.90;;;26.33;100.00;94454.00;2140606;55;26658;-51
2021/07/25 12:11:05;;;;;;;3.28;2.97;;;25.50;99.90;;;26.08;100.00;94458.00;2363862;56;26681;-51
2021/07/25 12:13:52;;;;;;;3.55;3.25;;;25.70;99.90;;;26.28;100.00;94446.00;2150354;56;26745;-51
2021/07/25 12:19:46;;;;;;;5.18;3.40;;;25.80;99.90;;;26.21;100.00;94438.00;2385063;55;34014;-52
2021/07/25 12:22:32;;;;;;;4.15;3.28;;;25.60;99.90;;;26.00;100.00;94442.00;2167461;56;27130;-51
2021/07/25 12:25:19;;;;;;;4.90;3.60;;;25.50;99.90;;;25.98;100.00;94434.00;2390740;56;27142;-51
2021/07/25 12:28:07;;;;;;;4.75;3.70;;;25.20;99.90;;;25.53;100.00;94424.00;2174347;56;26151;-51
2021/07/25 12:33:50;;;;;;;4.85;3.37;;;24.60;99.90;;;25.12;100.00;94433.00;2479848;54;33070;-51
2021/07/25 12:36:36;;;;;;;4.72;3.65;;;24.50;99.90;;;24.89;100.00;94438.00;2259457;54;27583;-52
2021/07/25 12:39:23;;;;;;;3.85;3.47;;;24.40;99.90;;;24.95;100.00;94447.00;2242248;55;26767;-51
2021/07/25 12:42:34;;;;;;;6.20;3.90;;;24.60;99.90;;;25.31;100.00;94450.00;2472686;54;26587;-52
2021/07/25 12:45:30;;;;;;;5.72;3.35;;;24.70;99.90;;;25.55;100.00;94460.00;2239423;55;27213;-52
2021/07/25 12:48:36;;;;;;;4.12;3.30;;;24.50;99.90;;;24.85;100.00;94461.00;2469283;54;27119;-52
2021/07/25 12:51:42;;;;;;;5.82;3.67;;;24.40;99.90;;;24.99;100.00;94479.00;2495546;54;26893;-52
2021/07/25 12:54:28;;;;;;;4.05;3.30;;;24.30;99.90;;;25.10;100.00;94493.00;2457436;53;27471;-53
2021/07/25 13:00:14;;;;;;;5.10;3.70;;;23.80;99.90;;;24.62;100.00;94504.00;2420863;54;33818;-51
2021/07/25 13:06:05;;;;;;;4.10;3.42;;;23.80;99.90;;;24.57;100.00;94505.00;2177158;56;26674;-51
2021/07/25 13:08:53;;;;;;;3.95;3.35;;;24.20;99.90;;;25.16;100.00;94504.00;2423806;55;26926;-51
2021/07/25 13:11:42;;;;;;;6.20;3.58;;;24.40;99.90;;;25.00;100.00;94502.00;2201793;55;27301;-51
2021/07/25 13:14:30;;;;;;;5.75;3.30;;;24.30;99.90;;;24.74;100.00;94495.00;2425202;55;27297;-51
2021/07/25 13:17:20;;;;;;;5.90;3.95;;;24.30;99.90;;;24.69;100.00;94484.00;2202694;55;27205;-51
2021/07/25 13:23:06;;;;;;;4.43;3.50;;;24.30;99.90;;;24.88;100.00;94485.00;2404786;54;33709;-51
2021/07/25 13:28:48;;;;;;;4.70;3.62;;;24.30;99.90;;;24.70;100.00;94472.00;2354726;56;34303;-52
2021/07/25 13:31:35;;;;;;;3.90;3.42;;;24.00;99.90;;;24.47;100.00;94467.00;2102969;57;27355;-51
2021/07/25 13:34:21;;;;;;;6.35;3.60;;;24.10;99.90;;;24.54;100.00;94461.00;2309814;57;26629;-51
2021/07/25 13:37:08;;;;;;;4.68;3.50;;;24.20;99.90;;;24.93;100.00;94455.00;2139879;56;27141;-52
2021/07/25 13:39:54;;;;;;;6.40;3.67;;;24.30;99.90;;;24.88;100.00;94453.00;2138343;56;27079;-51
2021/07/25 13:42:41;;;;;;;5.40;3.50;;;24.30;99.90;;;24.69;100.00;94443.00;2346647;56;26700;-51
2021/07/25 13:45:28;;;;;;;4.45;3.60;;;24.20;99.90;;;24.49;100.00;94441.00;2136014;56;27264;-51
2021/07/25 13:48:15;;;;;;;5.50;3.42;;;24.30;99.90;;;24.83;100.00;94436.00;2337721;57;27756;-51
2021/07/25 13:51:05;;;;;;;5.30;3.30;;;24.30;99.90;;;24.61;100.00;94441.00;2138169;57;26149;-51
2021/07/25 13:53:51;;;;;;;5.60;3.83;;;24.30;99.90;;;24.75;100.00;94432.00;2347432;57;26713;-51
2021/07/25 13:56:38;;;;;;;5.22;3.75;;;24.30;99.90;;;24.70;100.00;94420.00;2139562;58;27190;-51
2021/07/25 13:59:24;;;;;;;4.43;3.90;;;24.50;99.90;;;24.90;100.00;94434.00;2348793;57;27363;-51
2021/07/25 14:05:09;;;;;;;5.55;3.75;;;25.20;99.90;;;26.22;100.00;94437.00;2381664;55;34727;-51
2021/07/25 14:07:55;;;;;;;4.80;3.58;;;25.50;99.90;;;25.80;100.00;94440.00;2158634;58;27311;-52
2021/07/25 14:10:42;;;;;;;6.60;3.60;;;25.50;99.90;;;25.99;100.00;94441.00;2371983;57;27095;-51
2021/07/25 14:13:28;;;;;;;4.53;3.47;;;25.40;99.90;;;25.70;100.00;94435.00;2158562;56;26870;-51
2021/07/25 14:16:23;;;;;;;5.47;3.35;;;25.50;99.90;;;26.20;100.00;94447.00;2366862;56;27259;-51
2021/07/25 14:19:09;;;;;;;4.12;3.70;;;25.30;99.90;;;25.68;100.00;94451.00;2153753;56;26637;-52